Time;durP1;ratioP1;P1;durP2;ratioP2;P2;SDS_P1;SDS_P2;PMS_P1;PMS_P2;Temp;Humidity;BMP_temperature;BMP_pressure;BME280_temperature;BME280_humidity;BME280_pressure;Samples;Min_cycle;Max_cycle;Signal;HPM_P1;HPM_P2
2022/06/11 00:01:40;;;;;;;12.60;10.10;;;;;;;13.74;94.56;98396.42;108281;1286;22569;-85
2022/06/11 00:04:12;;;;;;;11.90;10.10;;;;;;;13.79;94.72;98406.22;108536;1286;22305;-87
2022/06/11 00:06:45;;;;;;;10.40;9.20;;;;;;;13.81;94.53;98403.02;108542;1285;22338;-85
2022/06/11 00:09:14;;;;;;;9.40;8.40;;;;;;;13.84;94.45;98400.90;108571;1285;22561;-87
2022/06/11 00:11:45;;;;;;;11.60;9.00;;;;;;;13.87;94.52;98398.57;108310;1286;22437;-88
2022/06/11 00:14:14;;;;;;;11.50;9.40;;;;;;;13.88;94.13;98397.06;108542;1285;22960;-85
2022/06/11 00:16:42;;;;;;;13.00;8.60;;;;;;;13.86;94.03;98399.23;108557;1286;22255;-87
2022/06/11 00:19:11;;;;;;;10.50;8.80;;;;;;;13.87;93.99;98398.34;108545;1286;22261;-87
2022/06/11 00:21:41;;;;;;;12.70;8.90;;;;;;;13.85;94.38;98398.71;108581;1286;22404;-87
2022/06/11 00:24:10;;;;;;;11.20;8.30;;;;;;;13.84;94.27;98398.80;108229;1286;22483;-87
2022/06/11 00:26:42;;;;;;;10.20;8.20;;;;;;;13.82;94.51;98402.20;108306;1286;23142;-86
2022/06/11 00:29:11;;;;;;;11.00;7.70;;;;;;;13.81;94.26;98398.91;108576;1286;22338;-85
2022/06/11 00:31:40;;;;;;;9.10;7.80;;;;;;;13.79;94.30;98402.48;108535;1285;22355;-87
2022/06/11 00:34:08;;;;;;;10.00;6.80;;;;;;;13.78;94.23;98402.36;108541;1285;22361;-87
2022/06/11 00:36:36;;;;;;;8.80;7.80;;;;;;;13.76;94.50;98399.02;108470;1287;22365;-85
2022/06/11 00:39:07;;;;;;;8.40;7.60;;;;;;;13.77;94.41;98401.50;108465;1286;22526;-88
2022/06/11 00:41:38;;;;;;;9.10;7.20;;;;;;;13.81;94.52;98400.84;108614;1285;22460;-87
2022/06/11 00:44:07;;;;;;;9.90;7.60;;;;;;;13.84;94.72;98400.90;108523;1287;22353;-88
2022/06/11 00:46:53;;;;;;;8.80;7.30;;;;;;;13.86;95.51;98403.73;108575;1285;22245;-84
2022/06/11 00:49:58;;;;;;;8.10;6.80;;;;;;;13.94;96.13;98400.28;108533;1286;22260;-88
2022/06/11 00:52:41;;;;;;;7.80;7.00;;;;;;;14.04;96.37;98399.70;107687;1292;22291;-86
2022/06/11 00:55:16;;;;;;;7.50;6.60;;;;;;;14.14;96.73;98402.76;107648;1293;22230;-87
2022/06/11 00:57:55;;;;;;;7.70;6.80;;;;;;;14.24;96.52;98397.76;107470;1294;22363;-81
2022/06/11 01:00:38;;;;;;;9.10;6.40;;;;;;;14.31;96.28;98395.79;107663;1293;22302;-87
2022/06/11 01:03:12;;;;;;;7.70;6.60;;;;;;;14.35;96.26;98395.14;107639;1293;22397;-87
2022/06/11 01:05:45;;;;;;;10.60;6.20;;;;;;;14.37;96.24;98392.05;107672;1293;22419;-87
2022/06/11 01:08:16;;;;;;;7.40;6.40;;;;;;;14.38;96.09;98394.60;107556;1293;23254;-85
2022/06/11 01:11:02;;;;;;;9.40;6.40;;;;;;;14.41;96.04;98398.48;107685;1293;22241;-87
2022/06/11 01:13:41;;;;;;;6.90;6.20;;;;;;;14.46;95.94;98398.38;108259;1281;23345;-85
2022/06/11 01:16:16;;;;;;;10.50;5.10;;;;;;;14.53;96.44;98394.98;108564;1286;22264;-83
2022/06/11 01:19:22;;;;;;;8.30;5.80;;;;;;;14.73;97.11;98399.06;108527;1286;22368;-93
2022/06/11 01:21:54;;;;;;;;;;;;;;;14.90;96.68;98403.23;108503;1287;22480;-84
2022/06/11 01:24:22;;;;;;;7.80;6.70;;;;;;;14.96;96.71;98396.44;108563;1287;22259;-86
2022/06/11 01:27:25;;;;;;;7.20;6.40;;;;;;;15.04;96.23;98397.40;108525;1286;22397;-84
2022/06/11 01:29:59;;;;;;;10.70;6.80;;;;;;;15.03;95.43;98401.33;108043;1290;22455;-90
2022/06/11 01:33:02;;;;;;;7.30;6.60;;;;;;;14.97;95.27;98401.29;108088;1290;22495;-86
2022/06/11 01:35:59;;;;;;;7.60;5.80;;;;;;;14.90;94.90;98400.83;108025;1290;22463;-83
2022/06/11 01:38:37;;;;;;;6.70;5.90;;;;;;;14.90;95.32;98399.16;108079;1290;22640;-85
2022/06/11 01:41:17;;;;;;;8.90;5.60;;;;;;;14.95;95.45;98400.02;107880;1290;22378;-84
2022/06/11 01:43:48;;;;;;;7.40;5.90;;;;;;;14.93;94.76;98397.31;108042;1290;22562;-85
2022/06/11 01:46:24;;;;;;;8.90;6.80;;;;;;;14.87;94.48;98401.26;108101;1290;22311;-88
2022/06/11 01:48:57;;;;;;;8.10;6.50;;;;;;;14.81;94.50;98397.08;108067;1290;22518;-87
2022/06/11 01:51:44;;;;;;;8.10;5.80;;;;;;;14.76;94.57;98395.00;107929;1290;22354;-88
2022/06/11 01:54:30;;;;;;;7.70;5.60;;;;;;;14.71;94.28;98397.46;108108;1290;22499;-87
2022/06/11 01:57:07;;;;;;;7.40;5.70;;;;;;;14.61;94.25;98400.55;108020;1290;23101;-88
2022/06/11 01:59:37;;;;;;;8.00;6.00;;;;;;;14.57;94.28;98404.77;108091;1290;22408;-88
2022/06/11 02:02:32;;;;;;;7.60;6.90;;;;;;;14.49;94.50;98404.08;108048;1290;23258;-86
2022/06/11 02:05:16;;;;;;;8.00;7.20;;;;;;;14.38;94.74;98401.55;108116;1287;22497;-87
2022/06/11 02:08:05;;;;;;;10.80;7.80;;;;;;;14.28;94.82;98401.28;108546;1286;22474;-86
2022/06/11 02:10:44;;;;;;;9.80;6.80;;;;;;;14.19;95.08;98404.16;108540;1287;22423;-87
2022/06/11 02:13:27;;;;;;;6.90;6.20;;;;;;;14.19;95.38;98405.16;108539;1285;22514;-88
2022/06/11 02:16:04;;;;;;;6.60;6.00;;;;;;;14.18;95.20;98403.44;108447;1286;22271;-88
2022/06/11 02:18:34;;;;;;;7.70;6.90;;;;;;;14.16;95.36;98401.98;108426;1286;22392;-88
2022/06/11 02:21:11;;;;;;;8.60;6.80;;;;;;;14.14;95.54;98399.19;108428;1287;22296;-88
2022/06/11 02:23:46;;;;;;;11.20;7.50;;;;;;;14.14;95.92;98401.04;108580;1285;22385;-88
2022/06/11 02:26:19;;;;;;;7.90;6.40;;;;;;;14.11;95.74;98403.13;108409;1287;22369;-86
2022/06/11 02:28:50;;;;;;;8.60;7.40;;;;;;;14.09;95.83;98409.63;108585;1285;22294;-91
2022/06/11 02:31:28;;;;;;;7.30;6.60;;;;;;;14.08;96.12;98411.69;108540;1286;23210;-92
2022/06/11 02:34:00;;;;;;;9.10;6.70;;;;;;;14.06;95.71;98414.13;108452;1287;22406;-92
2022/06/11 02:36:31;;;;;;;8.20;6.70;;;;;;;14.01;95.99;98415.65;108605;1286;22523;-92
2022/06/11 02:39:04;;;;;;;7.40;6.70;;;;;;;13.97;95.94;98412.43;108591;1286;22271;-91
2022/06/11 02:41:33;;;;;;;7.90;6.80;;;;;;;13.96;96.19;98409.73;108636;1285;22360;-90
2022/06/11 02:44:02;;;;;;;9.90;7.20;;;;;;;13.95;96.23;98415.97;108621;1285;22515;-92
2022/06/11 02:46:45;;;;;;;10.60;7.00;;;;;;;13.93;96.23;98413.45;108708;1285;22609;-91
2022/06/11 02:49:26;;;;;;;7.80;6.90;;;;;;;13.94;96.17;98418.45;108716;1285;22359;-92
2022/06/11 02:51:58;;;;;;;7.80;7.00;;;;;;;13.94;96.51;98418.93;108717;1285;22273;-91
2022/06/11 02:54:26;;;;;;;6.30;5.70;;;;;;;13.95;96.35;98415.48;108747;1285;22248;-90
2022/06/11 02:56:57;;;;;;;7.20;6.10;;;;;;;13.97;96.13;98421.02;108566;1286;22287;-89
2022/06/11 02:59:26;;;;;;;7.20;6.50;;;;;;;13.97;96.19;98420.21;108784;1285;22363;-92
2022/06/11 03:01:56;;;;;;;7.40;6.60;;;;;;;13.96;96.08;98424.83;108683;1286;22323;-91
2022/06/11 03:04:26;;;;;;;7.80;7.00;;;;;;;13.95;95.84;98424.41;108690;1286;22264;-88
2022/06/11 03:06:55;;;;;;;7.60;6.60;;;;;;;13.94;95.92;98423.20;108720;1285;22360;-91
2022/06/11 03:09:26;;;;;;;8.20;6.10;;;;;;;13.94;96.04;98418.77;108699;1285;22272;-89
2022/06/11 03:11:56;;;;;;;7.00;6.30;;;;;;;13.95;96.02;98423.68;108939;1274;22529;-89
2022/06/11 03:14:23;;;;;;;7.30;6.10;;;;;;;13.94;95.99;98429.77;108658;1287;22512;-89
2022/06/11 03:16:51;;;;;;;6.70;5.90;;;;;;;13.95;95.75;98431.64;108771;1285;22471;-91
2022/06/11 03:19:20;;;;;;;7.30;6.00;;;;;;;13.93;95.62;98434.07;108585;1286;22290;-92
2022/06/11 03:21:51;;;;;;;8.50;6.40;;;;;;;13.90;95.74;98433.70;108724;1287;22425;-92
2022/06/11 03:24:19;;;;;;;9.80;6.60;;;;;;;13.85;95.78;98433.01;108503;1286;22471;-90
2022/06/11 03:26:47;;;;;;;8.20;6.50;;;;;;;13.83;95.52;98433.60;108530;1286;22506;-92
2022/06/11 03:29:16;;;;;;;7.20;6.10;;;;;;;13.81;95.51;98437.53;108457;1287;22370;-91
2022/06/11 03:31:47;;;;;;;8.20;6.80;;;;;;;13.81;95.70;98436.56;108454;1288;22481;-93
2022/06/11 03:34:15;;;;;;;6.90;6.20;;;;;;;13.81;95.79;98436.50;108566;1287;22483;-90
2022/06/11 03:36:45;;;;;;;8.40;6.20;;;;;;;13.80;95.51;98434.80;108610;1287;22361;-92
2022/06/11 03:39:16;;;;;;;7.10;6.40;;;;;;;13.79;95.65;98439.39;108625;1287;22512;-92
2022/06/11 03:41:44;;;;;;;9.60;6.60;;;;;;;13.79;95.64;98440.19;108634;1286;22924;-91
2022/06/11 03:44:12;;;;;;;7.40;6.60;;;;;;;13.81;95.42;98440.75;108562;1287;22520;-91
2022/06/11 03:46:40;;;;;;;9.30;6.80;;;;;;;13.84;95.32;98440.66;108462;1287;22405;-88
2022/06/11 03:49:09;;;;;;;9.90;6.40;;;;;;;13.88;95.52;98436.88;108358;1286;22296;-89
2022/06/11 03:51:37;;;;;;;8.50;6.50;;;;;;;13.94;95.64;98434.63;108496;1287;23097;-88
2022/06/11 03:55:05;;;;;;;10.10;6.70;;;;;;;14.00;95.34;98439.20;108480;1286;23055;-87
2022/06/11 03:58:54;;;;;;;8.10;7.20;;;;;;;14.06;95.40;98436.73;107499;1294;22321;-87
2022/06/11 04:02:43;;;;;;;7.90;7.10;;;;;;;14.14;95.35;98433.77;107540;1294;22592;-89
2022/06/11 04:06:32;;;;;;;8.60;6.30;;;;;;;14.26;95.38;98426.05;107562;1293;22384;-89
2022/06/11 04:13:15;;;;;;;7.70;6.10;;;;;;;14.54;95.05;98418.26;108049;1288;22469;-90
2022/06/11 04:15:43;;;;;;;7.50;6.60;;;;;;;14.62;95.01;98417.79;108456;1287;22365;-89
2022/06/11 04:18:24;;;;;;;8.70;6.40;;;;;;;14.71;94.94;98417.55;108475;1287;22435;-87
2022/06/11 04:20:52;;;;;;;9.20;6.30;;;;;;;14.83;94.45;98422.52;108367;1287;22363;-87
2022/06/11 04:23:24;;;;;;;6.30;5.40;;;;;;;14.91;94.31;98426.14;108381;1287;23233;-88
2022/06/11 04:25:52;;;;;;;6.00;5.30;;;;;;;15.00;93.69;98422.81;108193;1287;22428;-87
2022/06/11 04:28:26;;;;;;;9.90;5.80;;;;;;;15.10;93.50;98430.34;108383;1287;22421;-89
2022/06/11 04:30:55;;;;;;;7.70;6.10;;;;;;;15.17;93.18;98425.02;108420;1286;22328;-87
2022/06/11 04:33:24;;;;;;;8.80;6.00;;;;;;;15.25;93.26;98429.27;108359;1287;22268;-88
2022/06/11 04:35:52;;;;;;;7.80;5.80;;;;;;;15.30;92.84;98432.24;108172;1287;22465;-88
2022/06/11 04:38:20;;;;;;;7.10;6.30;;;;;;;15.37;92.11;98431.30;108403;1287;23122;-88
2022/06/11 04:40:48;;;;;;;7.50;5.60;;;;;;;15.39;91.39;98432.52;108418;1287;22271;-88
2022/06/11 04:43:16;;;;;;;8.40;6.00;;;;;;;15.49;90.58;98430.58;108374;1287;22423;-90
2022/06/11 04:45:44;;;;;;;8.90;6.50;;;;;;;15.55;91.17;98430.94;108370;1286;22410;-87
2022/06/11 04:48:13;;;;;;;9.00;5.70;;;;;;;15.61;90.36;98433.25;108390;1287;22384;-88
2022/06/11 04:50:42;;;;;;;8.40;6.10;;;;;;;15.67;90.43;98434.36;108181;1287;22484;-88
2022/06/11 04:53:10;;;;;;;6.90;6.20;;;;;;;15.76;89.73;98437.92;108312;1287;22946;-87
2022/06/11 04:55:40;;;;;;;9.90;5.50;;;;;;;15.84;90.26;98439.71;108391;1286;23158;-87
2022/06/11 04:58:08;;;;;;;8.20;5.90;;;;;;;15.91;89.21;98443.41;108424;1287;22295;-88
2022/06/11 05:00:36;;;;;;;7.30;6.60;;;;;;;15.98;89.59;98443.86;108413;1287;22340;-86
2022/06/11 05:03:05;;;;;;;7.80;5.70;;;;;;;16.04;88.73;98447.96;108390;1287;22390;-86
2022/06/11 05:05:34;;;;;;;7.20;6.00;;;;;;;16.13;89.45;98450.76;108420;1287;22352;-86
2022/06/11 05:08:02;;;;;;;6.90;5.60;;;;;;;16.24;89.39;98449.98;108405;1287;22380;-87
2022/06/11 05:10:34;;;;;;;7.90;5.40;;;;;;;16.35;89.53;98453.03;108409;1287;22543;-87
2022/06/11 05:13:07;;;;;;;8.50;5.50;;;;;;;16.45;89.75;98450.19;108474;1287;22489;-87
2022/06/11 05:15:44;;;;;;;6.70;5.10;;;;;;;16.53;89.19;98451.13;108427;1287;22436;-86
2022/06/11 05:18:14;;;;;;;7.60;5.70;;;;;;;16.59;87.44;98447.89;108479;1287;22299;-87
2022/06/11 05:20:43;;;;;;;6.60;5.60;;;;;;;16.58;86.19;98451.73;108515;1287;22278;-89
2022/06/11 05:23:12;;;;;;;6.70;6.10;;;;;;;16.57;85.74;98454.27;108140;1287;22462;-90
2022/06/11 05:25:42;;;;;;;9.40;6.30;;;;;;;16.58;85.48;98461.85;108334;1287;22225;-87
2022/06/11 05:28:16;;;;;;;9.90;5.60;;;;;;;16.65;86.32;98464.06;108345;1287;22257;-89
2022/06/11 05:30:45;;;;;;;5.80;5.10;;;;;;;16.73;85.42;98464.96;108453;1287;22452;-89
2022/06/11 05:33:14;;;;;;;8.70;5.70;;;;;;;16.78;84.62;98462.73;108286;1286;22368;-89
2022/06/11 05:35:43;;;;;;;7.50;5.00;;;;;;;16.82;84.09;98460.00;108312;1287;22383;-87
2022/06/11 05:38:20;;;;;;;5.10;4.60;;;;;;;16.86;83.41;98462.62;108512;1287;23584;-87
2022/06/11 05:40:50;;;;;;;5.80;4.70;;;;;;;16.89;83.85;98460.75;108401;1287;22352;-85
2022/06/11 05:43:19;;;;;;;6.00;4.80;;;;;;;17.00;82.75;98465.55;108509;1287;22516;-88
2022/06/11 05:45:56;;;;;;;7.10;4.70;;;;;;;17.06;82.29;98467.44;108503;1287;22362;-87
2022/06/11 05:48:37;;;;;;;6.40;4.60;;;;;;;17.12;82.65;98469.36;108483;1286;22288;-87
2022/06/11 05:51:07;;;;;;;6.30;4.70;;;;;;;17.20;83.00;98470.40;108505;1286;22299;-88
2022/06/11 05:53:42;;;;;;;5.60;4.00;;;;;;;17.29;81.27;98468.80;108297;1287;22406;-88
2022/06/11 05:56:11;;;;;;;6.00;3.80;;;;;;;17.31;80.52;98467.66;108386;1287;22322;-86
2022/06/11 05:58:47;;;;;;;7.30;4.20;;;;;;;17.40;81.56;98467.29;108488;1287;22355;-87
2022/06/11 06:01:19;;;;;;;6.60;3.70;;;;;;;17.48;79.71;98467.91;108505;1287;22523;-86
2022/06/11 06:03:47;;;;;;;6.20;3.90;;;;;;;17.53;80.04;98471.64;108533;1287;22371;-86
2022/06/11 06:06:16;;;;;;;5.00;3.70;;;;;;;17.58;78.67;98475.29;108516;1287;22664;-85
2022/06/11 06:08:44;;;;;;;6.40;4.80;;;;;;;17.65;78.98;98478.13;108512;1286;22917;-85
2022/06/11 06:11:12;;;;;;;6.50;4.10;;;;;;;17.72;79.60;98479.52;108519;1287;22399;-84
2022/06/11 06:13:46;;;;;;;6.80;3.60;;;;;;;17.81;79.94;98478.88;108499;1286;23104;-84
2022/06/11 06:16:16;;;;;;;5.00;3.70;;;;;;;17.95;80.02;98481.49;108509;1287;22434;-84
2022/06/11 06:18:44;;;;;;;6.40;3.40;;;;;;;18.07;79.49;98485.36;108484;1286;22674;-86
2022/06/11 06:21:13;;;;;;;4.70;3.30;;;;;;;18.19;78.93;98487.40;108305;1287;23074;-86
2022/06/11 06:23:41;;;;;;;6.90;4.00;;;;;;;18.25;78.22;98485.06;108523;1287;23095;-86
2022/06/11 06:26:10;;;;;;;7.70;3.80;;;;;;;18.20;75.89;98487.61;108499;1287;22957;-85
2022/06/11 06:28:38;;;;;;;4.80;3.80;;;;;;;18.23;74.39;98487.88;108501;1287;22258;-86
2022/06/11 06:31:10;;;;;;;5.80;3.50;;;;;;;18.18;73.28;98484.81;108417;1287;23088;-87
2022/06/11 06:33:39;;;;;;;3.30;2.80;;;;;;;18.14;74.13;98489.75;108381;1287;23318;-88
2022/06/11 06:36:08;;;;;;;4.00;3.20;;;;;;;18.21;72.22;98493.57;108286;1286;22970;-87
2022/06/11 06:38:38;;;;;;;3.00;2.70;;;;;;;18.21;73.33;98492.26;108495;1287;22266;-84
2022/06/11 06:41:07;;;;;;;3.80;3.30;;;;;;;18.31;75.18;98492.29;108410;1287;22349;-86
2022/06/11 06:43:36;;;;;;;4.90;3.10;;;;;;;18.43;74.48;98495.52;108541;1286;22264;-86
2022/06/11 06:46:04;;;;;;;4.30;2.60;;;;;;;18.43;74.42;98493.41;108486;1287;22304;-87
2022/06/11 06:48:33;;;;;;;3.70;2.80;;;;;;;18.38;72.52;98494.64;108478;1286;23147;-85
2022/06/11 06:51:01;;;;;;;6.80;2.80;;;;;;;18.37;71.13;98495.54;108497;1287;23164;-87
2022/06/11 06:53:30;;;;;;;3.70;2.30;;;;;;;18.37;69.74;98491.88;108501;1287;23117;-86
2022/06/11 06:55:58;;;;;;;2.50;1.80;;;;;;;18.42;67.64;98492.92;108277;1287;22391;-88
2022/06/11 06:58:26;;;;;;;4.60;2.30;;;;;;;18.46;64.75;98492.27;108235;1287;22284;-88
2022/06/11 07:00:55;;;;;;;4.00;2.10;;;;;;;18.49;65.16;98491.77;108502;1287;22344;-87
2022/06/11 07:03:23;;;;;;;3.30;2.00;;;;;;;18.60;66.21;98490.51;108504;1286;23120;-87
2022/06/11 07:05:52;;;;;;;3.30;2.50;;;;;;;18.71;66.30;98491.91;108511;1287;22259;-86
2022/06/11 07:08:21;;;;;;;3.30;2.20;;;;;;;18.71;63.34;98493.38;108522;1287;22359;-84
2022/06/11 07:10:53;;;;;;;4.80;2.30;;;;;;;18.74;61.30;98499.88;108497;1287;22488;-85
2022/06/11 07:13:22;;;;;;;3.40;2.40;;;;;;;18.75;61.03;98505.02;108487;1286;23206;-84
2022/06/11 07:15:53;;;;;;;3.70;2.20;;;;;;;18.74;62.26;98503.48;108487;1287;22320;-85
2022/06/11 07:18:33;;;;;;;2.40;2.20;;;;;;;18.84;63.60;98506.27;108475;1286;22380;-87
2022/06/11 07:21:04;;;;;;;3.50;2.50;;;;;;;19.05;63.05;98505.70;108501;1287;23020;-87
2022/06/11 07:23:36;;;;;;;3.70;2.50;;;;;;;19.30;63.78;98505.11;108500;1287;22355;-87
2022/06/11 07:26:09;;;;;;;4.10;2.40;;;;;;;19.47;62.75;98500.27;108536;1286;22369;-87
2022/06/11 07:28:43;;;;;;;5.30;2.50;;;;;;;19.42;58.61;98509.92;108535;1287;22342;-87
2022/06/11 07:31:11;;;;;;;2.50;2.20;;;;;;;19.23;59.49;98517.86;108513;1286;23274;-88
2022/06/11 07:33:42;;;;;;;3.30;2.30;;;;;;;19.31;58.32;98515.52;108516;1287;22352;-86
2022/06/11 07:36:12;;;;;;;3.20;2.30;;;;;;;19.41;60.18;98511.88;108506;1287;22319;-87
2022/06/11 07:38:40;;;;;;;5.10;2.70;;;;;;;19.68;60.83;98512.78;108507;1287;22431;-85
2022/06/11 07:41:08;;;;;;;4.80;2.50;;;;;;;19.85;59.86;98512.46;108267;1287;22441;-88
2022/06/11 07:43:36;;;;;;;3.70;2.80;;;;;;;19.79;59.04;98517.20;108512;1287;22950;-86
2022/06/11 07:46:05;;;;;;;4.00;2.60;;;;;;;19.46;57.97;98514.67;108545;1287;22358;-86
2022/06/11 07:48:33;;;;;;;4.40;2.70;;;;;;;19.21;58.94;98518.33;108105;1287;22450;-86
2022/06/11 07:51:02;;;;;;;3.80;2.90;;;;;;;19.17;58.79;98520.07;108570;1286;22272;-86
2022/06/11 07:53:31;;;;;;;4.50;3.10;;;;;;;18.95;58.41;98516.75;108634;1287;22941;-87
2022/06/11 07:56:00;;;;;;;4.80;2.80;;;;;;;18.79;59.47;98514.13;108525;1287;22412;-86
2022/06/11 07:58:30;;;;;;;4.10;3.00;;;;;;;18.71;59.33;98511.56;108295;1287;23135;-86
2022/06/11 08:00:59;;;;;;;5.40;3.40;;;;;;;18.79;60.44;98508.41;108269;1287;22306;-86
2022/06/11 08:03:28;;;;;;;4.90;2.90;;;;;;;19.01;60.12;98514.39;108497;1287;22391;-86
2022/06/11 08:05:56;;;;;;;5.70;2.90;;;;;;;19.25;61.12;98513.45;108276;1287;22364;-87
2022/06/11 08:08:25;;;;;;;4.10;2.80;;;;;;;19.59;61.54;98508.45;108298;1287;23063;-88
2022/06/11 08:11:03;;;;;;;3.40;2.50;;;;;;;19.84;60.67;98503.35;108206;1287;23202;-88
2022/06/11 08:13:31;;;;;;;4.30;2.40;;;;;;;20.02;58.82;98507.10;108308;1287;22491;-87
2022/06/11 08:16:01;;;;;;;4.20;2.30;;;;;;;20.21;59.58;98511.09;108287;1287;22171;-86
2022/06/11 08:18:31;;;;;;;2.70;2.10;;;;;;;20.43;60.48;98509.53;108291;1287;22315;-85
2022/06/11 08:20:59;;;;;;;7.00;2.90;;;;;;;20.69;58.41;98503.14;108525;1287;22399;-87
2022/06/11 08:23:27;;;;;;;6.60;2.50;;;;;;;20.84;56.62;98503.69;108481;1287;22437;-86
2022/06/11 08:25:56;;;;;;;9.40;3.40;;;;;;;20.81;53.54;98500.48;108518;1287;22388;-87
2022/06/11 08:28:25;;;;;;;5.80;2.30;;;;;;;20.79;52.75;98500.58;108290;1287;22390;-87
2022/06/11 08:30:53;;;;;;;5.70;2.30;;;;;;;20.65;52.84;98501.31;108409;1287;22325;-87
2022/06/11 08:33:21;;;;;;;9.30;2.50;;;;;;;20.63;53.52;98498.91;108279;1287;22388;-87
2022/06/11 08:35:49;;;;;;;8.40;2.20;;;;;;;20.72;54.06;98493.83;108531;1287;22349;-86
2022/06/11 08:38:17;;;;;;;5.20;2.80;;;;;;;20.74;52.33;98493.48;108546;1287;22455;-85
2022/06/11 08:40:53;;;;;;;3.50;2.60;;;;;;;20.55;52.14;98494.79;108287;1286;22250;-85
2022/06/11 08:43:24;;;;;;;6.70;2.70;;;;;;;20.46;51.63;98494.02;108521;1286;22325;-85
2022/06/11 08:45:58;;;;;;;3.00;2.40;;;;;;;20.46;51.77;98491.84;108507;1286;22360;-86
2022/06/11 08:48:26;;;;;;;4.40;2.10;;;;;;;20.51;51.60;98485.27;108532;1287;22385;-87
2022/06/11 08:51:03;;;;;;;2.90;2.20;;;;;;;20.53;50.76;98493.73;108514;1286;22339;-86
2022/06/11 08:53:35;;;;;;;5.10;2.60;;;;;;;20.47;50.66;98495.88;108504;1286;22318;-87
2022/06/11 08:56:05;;;;;;;4.90;2.50;;;;;;;20.19;51.05;98497.91;108270;1287;22346;-88
2022/06/11 08:58:59;;;;;;;3.80;2.60;;;;;;;20.19;51.13;98493.38;108508;1286;22335;-86
2022/06/11 09:01:49;;;;;;;4.40;2.40;;;;;;;20.39;51.77;98494.56;108408;1286;22417;-87
2022/06/11 09:04:27;;;;;;;3.60;2.60;;;;;;;20.56;50.29;98492.87;108358;1287;22371;-84
2022/06/11 09:07:16;;;;;;;6.20;3.80;;;;;;;20.59;49.48;98494.05;108545;1287;22370;-86
2022/06/11 09:10:20;;;;;;;4.30;2.10;;;;;;;20.75;50.66;98491.10;108555;1286;22438;-86
2022/06/11 09:13:20;;;;;;;5.30;2.40;;;;;;;20.99;51.32;98483.88;108513;1287;23030;-88
2022/06/11 09:16:19;;;;;;;3.00;2.00;;;;;;;21.21;49.71;98483.70;108304;1287;22375;-86
2022/06/11 09:19:25;;;;;;;2.70;1.90;;;;;;;21.40;49.19;98482.16;108531;1286;22319;-86
2022/06/11 09:22:01;;;;;;;6.10;4.40;;;;;;;21.37;50.28;98482.69;108544;1286;22470;-87
2022/06/11 09:25:12;;;;;;;5.00;3.10;;;;;;;21.17;49.85;98481.42;108314;1286;22446;-87
2022/06/11 09:27:55;;;;;;;3.30;2.60;;;;;;;21.19;50.90;98477.69;108509;1286;22471;-86
2022/06/11 09:30:33;;;;;;;5.90;2.30;;;;;;;21.42;49.59;98475.99;108554;1286;22304;-88
2022/06/11 09:33:04;;;;;;;4.90;2.20;;;;;;;21.51;48.16;98474.40;108520;1287;22490;-87
2022/06/11 09:35:39;;;;;;;3.80;2.20;;;;;;;21.40;47.79;98470.16;108308;1287;22474;-87
2022/06/11 09:38:29;;;;;;;3.20;2.00;;;;;;;21.08;47.58;98470.70;108298;1287;22387;-88
2022/06/11 09:41:12;;;;;;;4.00;3.10;;;;;;;20.83;48.25;98463.42;108548;1287;22356;-86
2022/06/11 09:43:51;;;;;;;4.70;2.30;;;;;;;20.78;49.56;98464.88;108528;1286;22752;-85
2022/06/11 09:46:32;;;;;;;3.00;2.30;;;;;;;21.07;49.02;98462.15;108520;1287;22982;-87
2022/06/11 09:49:30;;;;;;;4.00;2.10;;;;;;;21.23;46.42;98461.45;108553;1287;22351;-85
2022/06/11 09:52:11;;;;;;;6.00;2.10;;;;;;;21.27;47.02;98460.52;108539;1286;22411;-87
2022/06/11 09:55:06;;;;;;;5.30;2.20;;;;;;;21.34;47.63;98454.59;108519;1286;23086;-86
2022/06/11 09:57:45;;;;;;;4.80;2.30;;;;;;;21.58;48.39;98448.94;108505;1287;22407;-86
2022/06/11 10:00:22;;;;;;;3.10;1.70;;;;;;;21.73;47.69;98452.49;108326;1287;23003;-84
2022/06/11 10:06:04;;;;;;;4.00;1.60;;;;;;;21.65;43.97;98451.21;108525;1287;22244;-87
2022/06/11 10:08:53;;;;;;;3.40;2.40;;;;;;;21.67;45.60;98452.29;108479;1287;23095;-85
2022/06/11 10:11:38;;;;;;;3.30;1.90;;;;;;;21.78;44.82;98450.09;108574;1287;22517;-86
2022/06/11 10:14:31;;;;;;;2.80;1.70;;;;;;;21.85;44.23;98446.00;108539;1286;23669;-86
2022/06/11 10:17:27;;;;;;;2.80;1.90;;;;;;;21.91;43.70;98447.23;108511;1287;22493;-86
2022/06/11 10:20:08;;;;;;;4.40;2.30;;;;;;;22.02;44.05;98440.79;108267;1287;193704;-85
2022/06/11 10:22:58;;;;;;;3.30;2.20;;;;;;;22.13;43.77;98430.10;108487;1287;22286;-85
2022/06/11 10:25:41;;;;;;;2.80;1.70;;;;;;;22.20;43.53;98420.39;108304;1287;22266;-86
2022/06/11 10:28:23;;;;;;;3.20;1.80;;;;;;;22.12;41.99;98435.75;108257;1287;22248;-86
2022/06/11 10:31:12;;;;;;;7.60;2.10;;;;;;;22.06;42.44;98432.95;108468;1286;22281;-86
2022/06/11 10:34:08;;;;;;;5.10;2.20;;;;;;;22.07;42.79;98429.98;108461;1287;22197;-85
2022/06/11 10:36:48;;;;;;;5.60;2.20;;;;;;;22.16;43.46;98422.27;108454;1287;22369;-85
2022/06/11 10:39:20;;;;;;;4.50;2.00;;;;;;;22.36;41.88;98426.02;108474;1286;22348;-87
2022/06/11 10:42:12;;;;;;;3.10;1.70;;;;;;;22.37;41.97;98424.15;108494;1286;22296;-88
2022/06/11 10:44:49;;;;;;;2.00;1.70;;;;;;;22.35;41.92;98426.23;108451;1286;22441;-86
2022/06/11 10:47:20;;;;;;;4.40;1.80;;;;;;;22.45;42.93;98421.31;108474;1287;23288;-86
2022/06/11 10:49:51;;;;;;;3.40;2.10;;;;;;;22.65;43.55;98411.16;108485;1286;22418;-87
2022/06/11 10:52:33;;;;;;;3.20;1.90;;;;;;;23.00;42.69;98416.71;108449;1286;22277;-86
2022/06/11 10:55:06;;;;;;;3.80;1.90;;;;;;;23.10;41.27;98416.01;108380;1287;22299;-91
2022/06/11 10:57:36;;;;;;;;;;;;;;;23.08;41.90;98412.91;108317;1287;23142;-90
2022/06/11 11:00:10;;;;;;;3.10;1.70;;;;;;;23.18;41.63;98416.28;108354;1287;23010;-93
2022/06/11 11:02:53;;;;;;;3.60;1.50;;;;;;;23.22;42.06;98408.73;108587;1287;22374;-92
2022/06/11 11:05:21;;;;;;;4.60;1.80;;;;;;;23.30;39.83;98420.73;108532;1287;22522;-90
2022/06/11 11:07:58;;;;;;;4.90;2.00;;;;;;;23.33;41.57;98419.19;108326;1287;23041;-85
2022/06/11 11:10:46;;;;;;;2.50;1.90;;;;;;;23.55;40.71;98413.59;108350;1287;22422;-90
2022/06/11 11:14:01;;;;;;;4.40;1.90;;;;;;;23.49;39.84;98411.95;108401;1274;22561;31
2022/06/11 11:16:36;;;;;;;2.90;1.70;;;;;;;23.58;40.33;98402.77;108668;1285;22964;-91
2022/06/11 11:19:20;;;;;;;4.90;1.80;;;;;;;23.59;40.09;98403.41;108469;1285;23036;-89
2022/06/11 11:21:49;;;;;;;3.20;1.50;;;;;;;23.49;39.48;98406.98;108563;1285;22411;-88
2022/06/11 11:24:25;;;;;;;2.30;1.70;;;;;;;23.36;39.90;98404.84;108446;1285;22278;-85
2022/06/11 11:27:46;;;;;;;4.40;1.80;;;;;;;23.47;39.92;98407.74;108248;1285;22419;-87
2022/06/11 11:30:14;;;;;;;4.20;1.90;;;;;;;23.40;39.56;98404.42;108422;1285;22266;-85
2022/06/11 11:32:47;;;;;;;3.70;1.90;;;;;;;23.49;40.58;98402.36;108652;1285;22303;-88
2022/06/11 11:35:19;;;;;;;2.90;1.60;;;;;;;23.74;40.78;98404.81;108402;1285;22245;-88
2022/06/11 11:38:11;;;;;;;2.10;1.70;;;;;;;23.81;39.90;98395.00;108297;1285;22285;-93
2022/06/11 11:40:59;;;;;;;14.80;11.40;;;;;;;23.83;38.58;98403.67;108757;1274;22782;31
2022/06/11 11:43:36;;;;;;;4.30;1.70;;;;;;;23.73;38.59;98402.22;108382;1287;22431;-89
2022/06/11 11:46:10;;;;;;;3.40;1.90;;;;;;;23.67;38.90;98394.64;108222;1287;22396;-86
2022/06/11 11:48:44;;;;;;;2.50;1.70;;;;;;;23.73;38.50;98394.04;108761;1274;22636;-92
2022/06/11 11:51:20;;;;;;;3.00;2.20;;;;;;;23.71;38.19;98391.65;108682;1285;22270;-87
2022/06/11 11:53:51;;;;;;;4.00;1.60;;;;;;;23.74;39.04;98398.94;108313;1286;22257;-87
2022/06/11 11:57:10;;;;;;;2.80;1.70;;;;;;;23.88;38.71;98393.92;108354;1285;23147;-86
2022/06/11 11:59:47;;;;;;;5.20;1.90;;;;;;;23.95;39.28;98393.20;108557;1285;22298;-85
2022/06/11 12:02:30;;;;;;;3.80;2.10;;;;;;;24.26;39.52;98397.39;108582;1285;22301;-87
2022/06/11 12:05:15;;;;;;;2.90;1.60;;;;;;;24.45;38.48;98396.37;108578;1285;22579;-88
2022/06/11 12:07:46;;;;;;;2.90;1.50;;;;;;;24.42;37.69;98392.64;108609;1285;22867;-85
2022/06/11 12:10:21;;;;;;;4.30;1.90;;;;;;;24.48;39.17;98389.08;108312;1285;22313;-87
2022/06/11 12:12:52;;;;;;;2.60;1.80;;;;;;;24.76;37.90;98391.20;108635;1285;22269;-86